^^
Datos históricos de la estación: Murcia-Puente Tocinos
Diario Informe para Abril 24, 2019 Unidades:  Ingés    Métrico   Ambas
Diario Semanal Mensual Anual
  Máxima: Mínima: Promedio:
Temperatura: 66 °F 57 °F 62.1 °F
Punto de rocio: 46 °F 39.2 °F 41.4 °F
Humedad: 65% 38% 47%
Velocidad viento: 20.1mph 1.4mph 11.1mph
Racha viento: 37mph - -
Viento- - OSO
Presión: 29.9 in 29.6 in -
Precipitación: 0 in    
 
 
Tabla de datos para Abril 24, 2019
Hora Temperatura Punto de rocio Presión Viento Velocidad viento Racha viento Humedad Intensidad lluvia(por hora) Nubes
00:04 63 °F 39.9 °F 29.6 in Oeste 9.2 mph 23.5 mph 42.7% 0 in
00:09 63.1 °F 39.6 °F 29.6 in Oeste 8.9 mph 23 mph 42% 0 in
00:14 63 °F 39.9 °F 29.6 in ONO 8.7 mph 17.3 mph 42.8% 0 in
00:19 62.4 °F 39.9 °F 29.6 in NO 7.8 mph 17 mph 43.3% 0 in
00:24 61.9 °F 39.7 °F 29.6 in ONO 6.9 mph 15 mph 44% 0 in
00:29 61.5 °F 39.9 °F 29.6 in ONO 8 mph 17.3 mph 45% 0 in
00:34 61.3 °F 39.7 °F 29.6 in ONO 8.7 mph 17 mph 45% 0 in
00:39 61.3 °F 39.7 °F 29.6 in ONO 8.6 mph 15.2 mph 45% 0 in
00:44 61.5 °F 39.9 °F 29.6 in ONO 8.5 mph 16.8 mph 45% 0 in
00:49 61.5 °F 39.9 °F 29.6 in Oeste 8.9 mph 17 mph 45% 0 in
00:54 61.5 °F 39.9 °F 29.6 in Oeste 9.2 mph 21.3 mph 45% 0 in
00:59 61.9 °F 40.3 °F 29.6 in Oeste 10.4 mph 23.5 mph 45% 0 in
01:04 62.4 °F 40.3 °F 29.6 in Oeste 11.2 mph 27.6 mph 44% 0 in
01:09 62.6 °F 40.3 °F 29.6 in Oeste 12.2 mph 28 mph 44% 0 in
01:14 62.4 °F 40.3 °F 29.6 in Oeste 13 mph 23 mph 44% 0 in
01:19 62.2 °F 40.1 °F 29.6 in Oeste 12.6 mph 29.9 mph 44% 0 in
01:24 62.6 °F 40.3 °F 29.6 in Oeste 12.3 mph 34.5 mph 44% 0 in
01:29 63 °F 40.8 °F 29.6 in Oeste 13.7 mph 35 mph 44% 0 in
01:34 63.1 °F 40.8 °F 29.6 in Oeste 14.7 mph 31 mph 44% 0 in
01:39 63.1 °F 40.8 °F 29.6 in Oeste 14.3 mph 25.6 mph 44% 0 in
01:44 63.1 °F 40.8 °F 29.6 in Oeste 14 mph 34.8 mph 43.9% 0 in
01:49 63.3 °F 40.6 °F 29.6 in Oeste 15.1 mph 35 mph 43.5% 0 in
01:54 63.1 °F 40.8 °F 29.6 in ONO 15.9 mph 35 mph 44% 0 in
01:59 63 °F 40.6 °F 29.6 in Oeste 15.5 mph 30 mph 44% 0 in
02:04 62.8 °F 40.5 °F 29.6 in Oeste 15.2 mph 26 mph 44% 0 in
02:09 62.8 °F 40.5 °F 29.6 in Oeste 13.7 mph 25.3 mph 44.1% 0 in
02:14 62.8 °F 40.5 °F 29.6 in OSO 12.5 mph 25.3 mph 44.1% 0 in
02:19 62.4 °F 40.8 °F 29.6 in Oeste 12.5 mph 25.3 mph 45% 0 in
02:24 62.4 °F 40.8 °F 29.6 in OSO 12.5 mph 25.6 mph 45% 0 in
02:29 62.2 °F 40.6 °F 29.6 in Oeste 13 mph 26 mph 45% 0 in
02:34 62.2 °F 40.6 °F 29.6 in Oeste 13.5 mph 25 mph 45% 0 in
02:39 62.1 °F 40.8 °F 29.6 in OSO 12.8 mph 22 mph 45.8% 0 in
02:44 61.9 °F 40.8 °F 29.6 in OSO 12.3 mph 23.5 mph 46% 0 in
02:49 61.9 °F 40.8 °F 29.6 in Oeste 12.1 mph 23 mph 46% 0 in
02:54 61.5 °F 40.5 °F 29.6 in OSO 11.8 mph 24.6 mph 46% 0 in
02:59 61.7 °F 40.6 °F 29.6 in Oeste 12.6 mph 25.3 mph 46% 0 in
03:04 61.9 °F 40.3 °F 29.6 in Oeste 13 mph 25 mph 45% 0 in
03:09 61.9 °F 40.3 °F 29.6 in Oeste 13 mph 24.2 mph 45% 0 in
03:14 61.9 °F 40.3 °F 29.6 in Oeste 13 mph 23 mph 45% 0 in
03:19 61.9 °F 40.3 °F 29.6 in Oeste 12.3 mph 33.5 mph 45% 0 in
03:24 62.1 °F 40.5 °F 29.6 in Oeste 11.8 mph 33 mph 45% 0 in
03:29 62.1 °F 40.5 °F 29.6 in Oeste 13.3 mph 28.8 mph 45% 0 in
03:34 62.2 °F 40.6 °F 29.6 in Oeste 14.5 mph 29 mph 45% 0 in
03:39 62.1 °F 40.5 °F 29.6 in Oeste 14.9 mph 31.3 mph 45% 0 in
03:44 62.2 °F 40.6 °F 29.6 in Oeste 15.2 mph 31 mph 45% 0 in
03:49 62.2 °F 40.6 °F 29.6 in Oeste 15.2 mph 28.8 mph 45% 0 in
03:54 62.2 °F 40.6 °F 29.6 in Oeste 15.2 mph 33.7 mph 45% 0 in
03:59 62.4 °F 40.3 °F 29.6 in Oeste 16.8 mph 34 mph 44.1% 0 in
04:04 62.4 °F 40.6 °F 29.6 in Oeste 17.8 mph 31.3 mph 44.7% 0 in
04:09 62.2 °F 40.6 °F 29.6 in Oeste 17 mph 31 mph 45% 0 in
04:14 62.4 °F 40.5 °F 29.6 in Oeste 16.3 mph 32.2 mph 44.4% 0 in
04:19 62.2 °F 40.6 °F 29.6 in Oeste 17 mph 32.2 mph 45% 0 in
04:24 62.4 °F 40.8 °F 29.6 in Oeste 17.5 mph 34.4 mph 45% 0 in
04:29 62.4 °F 40.8 °F 29.6 in Oeste 18.1 mph 34 mph 45% 0 in
04:34 62.2 °F 40.6 °F 29.6 in Oeste 18.5 mph 31.1 mph 45% 0 in
04:39 62.2 °F 40.6 °F 29.6 in Oeste 17.5 mph 33.5 mph 45% 0 in
04:44 62.2 °F 40.6 °F 29.6 in Oeste 16.8 mph 33 mph 45% 0 in
04:49 62.1 °F 40.6 °F 29.6 in Oeste 16.2 mph 29 mph 45.2% 0 in
04:54 61.9 °F 40.8 °F 29.6 in Oeste 15.6 mph 27.9 mph 45.7% 0 in
04:59 62.2 °F 40.6 °F 29.6 in Oeste 15.8 mph 32.4 mph 45% 0 in
05:04 62.1 °F 40.5 °F 29.6 in Oeste 15.9 mph 32 mph 45% 0 in
05:09 62.1 °F 40.5 °F 29.6 in Oeste 15.7 mph 29 mph 45% 0 in
05:14 61.9 °F 40.8 °F 29.6 in Oeste 15.6 mph 27 mph 45.8% 0 in
05:19 61.9 °F 40.8 °F 29.6 in Oeste 14.4 mph 25.3 mph 46% 0 in
05:24 61.9 °F 40.8 °F 29.6 in Oeste 13.5 mph 28.6 mph 46% 0 in
05:29 62.1 °F 40.6 °F 29.6 in Oeste 15 mph 32.4 mph 45.4% 0 in
05:34 62.1 °F 41 °F 29.6 in Oeste 16.3 mph 32 mph 46% 0 in
05:39 62.1 °F 41 °F 29.6 in Oeste 15.7 mph 29 mph 46% 0 in
05:44 61.9 °F 40.8 °F 29.6 in Oeste 15.2 mph 25.3 mph 46% 0 in
05:49 61.9 °F 40.8 °F 29.6 in Oeste 15.2 mph 26.5 mph 46% 0 in
05:54 61.7 °F 40.6 °F 29.6 in ONO 15.2 mph 26 mph 46% 0 in
05:59 61.5 °F 40.6 °F 29.6 in Oeste 14.1 mph 26.8 mph 46.2% 0 in
06:04 61.9 °F 40.8 °F 29.6 in Oeste 13.5 mph 33.4 mph 46% 0 in
06:09 61.7 °F 40.8 °F 29.6 in Oeste 15 mph 33 mph 46.4% 0 in
06:14 61.5 °F 41.2 °F 29.6 in Oeste 16.3 mph 36.8 mph 47% 0 in
06:19 61.3 °F 41 °F 29.6 in Oeste 15 mph 37 mph 47% 0 in
06:24 61.2 °F 40.8 °F 29.6 in Oeste 14 mph 23.5 mph 47% 0 in
06:29 61.2 °F 40.8 °F 29.6 in Oeste 14.4 mph 25.6 mph 47% 0 in
06:34 61.3 °F 40.8 °F 29.6 in ONO 14.7 mph 27.6 mph 47% 0 in
06:39 61.3 °F 40.8 °F 29.6 in ONO 14.7 mph 28 mph 47% 0 in
06:44 61.3 °F 40.8 °F 29.6 in Oeste 14.7 mph 33.5 mph 47% 0 in
06:49 61.2 °F 41.2 °F 29.6 in ONO 16 mph 33 mph 47.8% 0 in
06:54 61.2 °F 41.4 °F 29.6 in Oeste 17 mph 30 mph 48% 0 in
06:59 61.2 °F 41.2 °F 29.6 in Oeste 16.6 mph 29 mph 47.7% 0 in
07:04 61.2 °F 40.8 °F 29.6 in ONO 16.3 mph 25.3 mph 47% 0 in
07:09 61.2 °F 40.8 °F 29.6 in ONO 15.5 mph 25 mph 47% 0 in
07:14 61.2 °F 40.8 °F 29.6 in ONO 14.7 mph 24.6 mph 47% 0 in
07:19 61.3 °F 40.8 °F 29.6 in ONO 14 mph 32.4 mph 46.9% 0 in
07:24 61.5 °F 40.5 °F 29.6 in ONO 13.5 mph 32.2 mph 46% 0 in
07:29 61.5 °F 40.5 °F 29.6 in ONO 14.4 mph 23 mph 46% 0 in
07:34 61.3 °F 40.6 °F 29.6 in ONO 15.2 mph 22 mph 46.6% 0 in
07:39 61.2 °F 40.8 °F 29.6 in ONO 13.1 mph 20.1 mph 47% 0 in
07:44 61.5 °F 40.5 °F 29.6 in Oeste 11.4 mph 24.6 mph 46.2% 0 in
07:49 61.5 °F 40.6 °F 29.6 in ONO 12.2 mph 25 mph 46% 0 in
07:54 61.7 °F 40.6 °F 29.6 in ONO 13 mph 21 mph 46% 0 in
07:59 61.5 °F 40.5 °F 29.6 in Oeste 13.3 mph 25.3 mph 46% 0 in
08:04 61.5 °F 40.5 °F 29.7 in ONO 13.5 mph 25 mph 46% 0 in
08:09 61.5 °F 40.5 °F 29.7 in ONO 12 mph 17 mph 46% 0 in
08:14 61.3 °F 40.8 °F 29.7 in Oeste 10.7 mph 16 mph 46.6% 0 in
08:19 61.3 °F 40.8 °F 29.7 in ONO 9.2 mph 15 mph 47% 0 in
08:24 61.3 °F 40.8 °F 29.7 in ONO 8.1 mph 18.1 mph 47% 0 in
08:29 61.5 °F 40.6 °F 29.7 in ONO 8.3 mph 18.4 mph 46.2% 0 in
08:34 61.7 °F 40.8 °F 29.7 in ONO 8.5 mph 17 mph 46% 0 in
08:39 61.9 °F 40.6 °F 29.7 in ONO 8.9 mph 31.1 mph 45.6% 0 in
08:44 62.2 °F 40.3 °F 29.7 in ONO 9.2 mph 31 mph 44.5% 0 in
08:49 62.4 °F 40.5 °F 29.7 in NO 11 mph 23 mph 44.3% 0 in
08:54 62.2 °F 40.5 °F 29.7 in ONO 12.5 mph 24.2 mph 44.7% 0 in
08:59 62.2 °F 40.1 °F 29.7 in ONO 11.7 mph 24 mph 44% 0 in
09:04 62.4 °F 40.3 °F 29.7 in ONO 11.2 mph 20 mph 44% 0 in
09:09 62.4 °F 40.3 °F 29.7 in ONO 10.7 mph 17 mph 44% 0 in
09:14 62.2 °F 40.5 °F 29.7 in ONO 10.2 mph 14 mph 44.6% 0 in
09:19 62.2 °F 40.1 °F 29.7 in ONO 8.7 mph 19.7 mph 44.3% 0 in
09:24 62.2 °F 40.3 °F 29.7 in ONO 7.4 mph 20 mph 44.3% 0 in
09:29 62.2 °F 40.3 °F 29.7 in ONO 8.6 mph 18.4 mph 44.4% 0 in
09:34 62.2 °F 40.1 °F 29.7 in ONO 9.7 mph 18 mph 44% 0 in
09:39 62.4 °F 40.3 °F 29.7 in ONO 10.3 mph 26.5 mph 44% 0 in
09:44 62.8 °F 40.3 °F 29.7 in ONO 10.7 mph 26 mph 43.7% 0 in
09:49 62.8 °F 40.1 °F 29.7 in ONO 10.7 mph 18 mph 43.5% 0 in
09:54 62.8 °F 40.5 °F 29.7 in ONO 10.7 mph 13 mph 44% 0 in
09:59 62.4 °F 40.3 °F 29.7 in ONO 8.8 mph 16.3 mph 44% 0 in
10:04 62.8 °F 40.5 °F 29.7 in NO 7.6 mph 16.3 mph 44% 0 in
10:09 62.8 °F 40.5 °F 29.7 in ONO 9 mph 16 mph 44% 0 in
10:14 62.8 °F 40.5 °F 29.7 in NO 10.2 mph 19.7 mph 44% 0 in
10:19 62.8 °F 40.5 °F 29.7 in NO 9.6 mph 20 mph 44% 0 in
10:24 63 °F 40.6 °F 29.7 in NO 9.2 mph 20.7 mph 44% 0 in
10:29 63 °F 40.6 °F 29.7 in ONO 10 mph 23.5 mph 43.8% 0 in
10:34 63.1 °F 40.3 °F 29.7 in ONO 10.7 mph 24.2 mph 43% 0 in
10:39 63.1 °F 40.3 °F 29.7 in ONO 11.8 mph 24 mph 43% 0 in
10:44 63.3 °F 40.5 °F 29.7 in ONO 13 mph 25.3 mph 43% 0 in
10:49 63.5 °F 40.5 °F 29.7 in ONO 13 mph 25 mph 43% 0 in
10:54 63.5 °F 40.6 °F 29.7 in ONO 13 mph 24.2 mph 43% 0 in
10:59 63.5 °F 40.6 °F 29.7 in ONO 12.7 mph 24 mph 43.1% 0 in
11:04 63.7 °F 40.8 °F 29.7 in ONO 12.5 mph 26.5 mph 43% 0 in
11:09 63.9 °F 40.6 °F 29.7 in ONO 13 mph 31.1 mph 42.6% 0 in
11:14 63.9 °F 40.6 °F 29.7 in ONO 13.5 mph 31 mph 42.6% 0 in
11:19 63.9 °F 40.8 °F 29.7 in NO 14.2 mph 26.5 mph 43% 0 in
11:24 64 °F 41 °F 29.7 in ONO 14.7 mph 26 mph 42.9% 0 in
11:29 64 °F 41 °F 29.7 in ONO 14.6 mph 25 mph 42.9% 0 in
11:34 64.2 °F 40.8 °F 29.7 in ONO 14.5 mph 26.5 mph 42.5% 0 in
11:39 64.2 °F 40.3 °F 29.7 in ONO 13.7 mph 28.8 mph 41.5% 0 in
11:44 64.2 °F 39.9 °F 29.7 in ONO 13 mph 29 mph 41% 0 in
11:49 64.2 °F 39.7 °F 29.7 in ONO 14.8 mph 27.9 mph 40.6% 0 in
11:54 64.4 °F 39.6 °F 29.7 in ONO 16.3 mph 29.1 mph 40% 0 in
11:59 64.6 °F 40.1 °F 29.7 in ONO 15.8 mph 29 mph 40.9% 0 in
12:04 64.6 °F 40.3 °F 29.7 in ONO 15.6 mph 27.6 mph 41% 0 in
12:09 64.6 °F 40.3 °F 29.7 in ONO 14.7 mph 29.9 mph 41.1% 0 in
12:14 64.6 °F 40.5 °F 29.7 in ONO 14 mph 30 mph 41.2% 0 in
12:19 64.8 °F 40.6 °F 29.7 in ONO 16.3 mph 29 mph 41.5% 0 in
12:24 64.9 °F 40.8 °F 29.7 in ONO 18.1 mph 26 mph 41.2% 0 in
12:29 64.9 °F 40.6 °F 29.7 in ONO 16.3 mph 32.2 mph 41% 0 in
12:34 64.8 °F 40.5 °F 29.7 in ONO 14.7 mph 32 mph 41% 0 in
12:39 64.8 °F 40.6 °F 29.7 in ONO 15 mph 29.4 mph 41% 0 in
12:44 64.9 °F 40.6 °F 29.7 in ONO 15.2 mph 30 mph 41% 0 in
12:49 64.9 °F 40.6 °F 29.7 in ONO 14.9 mph 25 mph 41% 0 in
12:54 64.9 °F 39.9 °F 29.7 in NO 14.7 mph 25 mph 40% 0 in
12:59 64.9 °F 40.5 °F 29.7 in ONO 14.3 mph 24 mph 40.7% 0 in
13:04 64.9 °F 40.6 °F 29.7 in ONO 14 mph 23 mph 40.9% 0 in
13:09 64.9 °F 40.3 °F 29.7 in ONO 13.4 mph 24.8 mph 40.2% 0 in
13:14 65.1 °F 39.7 °F 29.7 in ONO 13 mph 26.5 mph 39.3% 0 in
13:19 65.1 °F 39.7 °F 29.7 in NO 13.9 mph 26.5 mph 39.3% 0 in
13:24 65.3 °F 39.7 °F 29.7 in NO 14.5 mph 23 mph 38.9% 0 in
13:29 65.5 °F 39.4 °F 29.7 in NO 13.3 mph 24.6 mph 38.2% 0 in
13:34 65.5 °F 39.2 °F 29.7 in NO 12.3 mph 25 mph 38% 0 in
13:39 65.5 °F 39.4 °F 29.7 in NO 12.7 mph 20 mph 38.3% 0 in
13:44 65.7 °F 39.9 °F 29.7 in ONO 13 mph 23 mph 39% 0 in
13:49 65.7 °F 39.9 °F 29.7 in NO 12 mph 23 mph 39% 0 in
13:54 65.7 °F 39.9 °F 29.7 in ONO 11.2 mph 25.6 mph 39% 0 in
13:59 65.5 °F 39.7 °F 29.7 in ONO 12.7 mph 26 mph 38.7% 0 in
14:04 65.5 °F 39.9 °F 29.7 in ONO 13.7 mph 26 mph 39% 0 in
14:09 65.5 °F 39.9 °F 29.7 in ONO 13.7 mph 26.3 mph 39% 0 in
14:14 65.7 °F 39.9 °F 29.7 in ONO 13.7 mph 26.5 mph 39% 0 in
14:19 65.7 °F 39.9 °F 29.7 in NO 12.9 mph 24 mph 39% 0 in
14:24 65.7 °F 39.9 °F 29.7 in ONO 12.3 mph 23 mph 39% 0 in
14:29 65.7 °F 39.9 °F 29.7 in ONO 12.1 mph 26.5 mph 38.8% 0 in
14:34 65.7 °F 39.9 °F 29.7 in ONO 11.8 mph 26.5 mph 39% 0 in
14:39 65.7 °F 39.9 °F 29.7 in ONO 12.7 mph 26 mph 39% 0 in
14:44 65.7 °F 39.9 °F 29.7 in NO 13.5 mph 24.8 mph 39% 0 in
14:49 65.7 °F 39.9 °F 29.7 in ONO 13.8 mph 29.1 mph 39% 0 in
14:54 65.5 °F 39.9 °F 29.7 in NO 14 mph 30.1 mph 39% 0 in
14:59 65.5 °F 40.3 °F 29.7 in NO 15.9 mph 31.1 mph 39.7% 0 in
15:04 65.5 °F 41 °F 29.7 in ONO 17 mph 31 mph 41% 0 in
15:09 65.5 °F 41.2 °F 29.7 in ONO 15.4 mph 29.1 mph 41% 0 in
15:14 65.5 °F 41 °F 29.7 in ONO 14 mph 30.1 mph 40.7% 0 in
15:19 65.5 °F 40.8 °F 29.7 in ONO 16.1 mph 34.8 mph 40.6% 0 in
15:24 65.7 °F 40.8 °F 29.7 in ONO 17.8 mph 36 mph 40.2% 0 in
15:29 65.8 °F 40.8 °F 29.7 in ONO 17.6 mph 36.9 mph 40% 0 in
15:34 65.8 °F 40.8 °F 29.7 in ONO 17.5 mph 37 mph 40% 0 in
15:39 66 °F 41 °F 29.7 in NO 18.8 mph 37 mph 40% 0 in
15:44 66 °F 40.8 °F 29.7 in ONO 20.1 mph 32 mph 39.8% 0 in
15:49 65.8 °F 40.8 °F 29.7 in NO 19 mph 32 mph 40% 0 in
15:54 66 °F 41 °F 29.7 in ONO 18.1 mph 32.7 mph 40% 0 in
15:59 66 °F 41 °F 29.7 in ONO 17.7 mph 33 mph 40% 0 in
16:04 65.8 °F 40.8 °F 29.7 in ONO 17.5 mph 33.7 mph 40% 0 in
16:09 65.8 °F 40.8 °F 29.7 in NO 18.3 mph 34 mph 40% 0 in
16:14 66 °F 41 °F 29.7 in NO 19 mph 32 mph 40% 0 in
16:19 66 °F 41 °F 29.7 in ONO 18.1 mph 32.2 mph 40% 0 in
16:24 65.8 °F 41.4 °F 29.7 in ONO 17.5 mph 32 mph 40.8% 0 in
16:29 65.8 °F 41.5 °F 29.7 in NO 17.6 mph 33.4 mph 41% 0 in
16:34 65.8 °F 41.5 °F 29.7 in NO 17.8 mph 34.2 mph 41% 0 in
16:39 65.8 °F 41.4 °F 29.7 in NO 18 mph 34 mph 41% 0 in
16:44 65.7 °F 41.7 °F 29.7 in NO 18.1 mph 30 mph 41.8% 0 in
16:49 65.7 °F 41.9 °F 29.7 in NO 15.5 mph 25.3 mph 42% 0 in
16:54 65.5 °F 41.9 °F 29.7 in ONO 13.5 mph 25.6 mph 42.2% 0 in
16:59 65.5 °F 41.7 °F 29.7 in NO 13.6 mph 26 mph 42% 0 in
17:04 65.5 °F 42.1 °F 29.7 in NO 13.7 mph 25 mph 42.4% 0 in
17:09 64.4 °F 43.7 °F 29.7 in NNO 12.9 mph 21 mph 47% 0 in
17:14 62.6 °F 44.1 °F 29.7 in North 12.3 mph 15 mph 50.8% 0 in
17:19 61.7 °F 44.4 °F 29.7 in NNE 8.3 mph 10 mph 53% 0 in
17:24 61.2 °F 44.2 °F 29.7 in NNE 5.2 mph 9 mph 54% 0 in
17:29 60.6 °F 44.4 °F 29.7 in North 5.2 mph 8.1 mph 54.8% 0 in
17:34 60.6 °F 44.4 °F 29.8 in NE 5.2 mph 8.5 mph 55% 0 in
17:39 60.4 °F 44.6 °F 29.8 in NE 4.9 mph 9.7 mph 55.9% 0 in
17:44 60.3 °F 44.8 °F 29.8 in NNE 4.7 mph 10 mph 56.4% 0 in
17:49 60.3 °F 45.1 °F 29.8 in NNE 4.7 mph 9 mph 57.4% 0 in
17:54 59.9 °F 45.3 °F 29.8 in NNE 4.7 mph 10.4 mph 58.6% 0 in
17:59 59.5 °F 45.5 °F 29.8 in NNE 4.5 mph 11.2 mph 59.6% 0 in
18:04 59.4 °F 45.5 °F 29.8 in NNE 4.3 mph 12 mph 60.3% 0 in
18:09 58.8 °F 45.7 °F 29.8 in NNE 5.3 mph 12 mph 61.5% 0 in
18:14 58.5 °F 46 °F 29.8 in NNE 5.9 mph 13.8 mph 63% 0 in
18:19 58.1 °F 46 °F 29.8 in NNE 7.5 mph 15.9 mph 64.1% 0 in
18:24 57.9 °F 46 °F 29.8 in North 8.7 mph 16 mph 64.6% 0 in
18:29 57.7 °F 45.7 °F 29.8 in NE 7.5 mph 13 mph 64% 0 in
18:34 57.7 °F 45.7 °F 29.8 in NNE 6.4 mph 13 mph 64% 0 in
18:39 57.7 °F 45.5 °F 29.8 in NE 7.1 mph 13.8 mph 64% 0 in
18:44 57.6 °F 45.5 °F 29.8 in NE 7.6 mph 14 mph 64% 0 in
18:49 57.4 °F 45.3 °F 29.8 in NE 8.1 mph 13 mph 64% 0 in
18:54 57.4 °F 45.3 °F 29.8 in NE 8.5 mph 12 mph 64% 0 in
18:59 57.4 °F 45.3 °F 29.8 in NNE 7.2 mph 12 mph 64% 0 in
19:04 57.2 °F 45.5 °F 29.8 in NE 6.4 mph 12 mph 65% 0 in
19:09 57 °F 45.3 °F 29.8 in NE 5.7 mph 9 mph 64.8% 0 in
19:14 57 °F 45.1 °F 29.8 in North 5.2 mph 7.6 mph 64.2% 0 in
19:19 57 °F 45 °F 29.8 in NE 4.9 mph 10.4 mph 64.1% 0 in
19:24 57 °F 44.6 °F 29.8 in NE 4.7 mph 10 mph 63% 0 in
19:29 57.2 °F 44.4 °F 29.8 in NE 4.1 mph 7 mph 62.2% 0 in
19:34 57.4 °F 44.1 °F 29.8 in ENE 3.6 mph 5 mph 61% 0 in
19:39 57.6 °F 43.9 °F 29.8 in NE 3.3 mph 5.2 mph 60.1% 0 in
19:44 57.6 °F 43.7 °F 29.8 in NE 2.9 mph 5 mph 59.6% 0 in
19:49 57.7 °F 43.5 °F 29.8 in NNE 2.9 mph 5.9 mph 59.1% 0 in
19:54 57.7 °F 43.9 °F 29.8 in NNE 2.9 mph 6 mph 60% 0 in
19:59 57.7 °F 43.9 °F 29.8 in NE 3 mph 6 mph 60% 0 in
20:04 57.6 °F 43.7 °F 29.8 in NE 3.1 mph 5 mph 59.7% 0 in
20:09 57.6 °F 43.5 °F 29.8 in NE 2.4 mph 4 mph 59.3% 0 in
20:14 57.7 °F 43.5 °F 29.8 in NNE 1.8 mph 4.7 mph 59.4% 0 in
20:19 57.7 °F 44.1 °F 29.8 in NNO 1.6 mph 5 mph 60.2% 0 in
20:24 57.6 °F 44.1 °F 29.8 in North 1.4 mph 4 mph 60.5% 0 in
20:29 57.6 °F 43.7 °F 29.8 in NNE 1.7 mph 4 mph 59.9% 0 in
20:34 57.6 °F 43.3 °F 29.8 in ENE 2 mph 6.4 mph 59.2% 0 in
20:39 57.7 °F 44.1 °F 29.8 in OSO 2.6 mph 7 mph 60.4% 0 in
20:44 57.6 °F 43.7 °F 29.8 in ENE 3.1 mph 10 mph 59.7% 0 in
20:49 57.7 °F 43.2 °F 29.8 in Este 4.2 mph 10.7 mph 58.1% 0 in
20:54 57.9 °F 43.2 °F 29.8 in Este 5.2 mph 11 mph 58% 0 in
20:59 57.9 °F 43.2 °F 29.8 in ESE 4.5 mph 8.1 mph 58% 0 in
21:04 57.7 °F 43.2 °F 29.8 in ESE 4 mph 8.1 mph 58% 0 in
21:09 57.6 °F 43 °F 29.8 in SE 4.7 mph 9.2 mph 58% 0 in
21:14 57.6 °F 43 °F 29.8 in SSE 5.2 mph 9.2 mph 58% 0 in
21:19 57.6 °F 42.6 °F 29.8 in Sur 5.2 mph 9.2 mph 57.2% 0 in
21:24 57.7 °F 42.6 °F 29.8 in SO 5.2 mph 9 mph 57% 0 in
21:29 57.7 °F 42.4 °F 29.8 in SO 4.7 mph 9.7 mph 57% 0 in
21:34 58.1 °F 42.6 °F 29.8 in SO 4.3 mph 10 mph 56.2% 0 in
21:39 58.5 °F 42.3 °F 29.8 in OSO 4.3 mph 9 mph 55.1% 0 in
21:44 58.6 °F 42.3 °F 29.8 in SO 4.3 mph 6.2 mph 54.7% 0 in
21:49 58.8 °F 42.3 °F 29.8 in SSO 3.7 mph 6 mph 54% 0 in
21:54 58.8 °F 42.3 °F 29.8 in SO 3.1 mph 5 mph 54% 0 in
21:59 58.6 °F 42.3 °F 29.8 in Oeste 2.3 mph 5.9 mph 54.4% 0 in
22:04 58.6 °F 42.3 °F 29.8 in SO 1.8 mph 8.1 mph 54.4% 0 in
22:09 59.2 °F 42.1 °F 29.8 in SO 3 mph 8 mph 53.4% 0 in
22:14 59.2 °F 42.1 °F 29.8 in SO 4 mph 7.6 mph 53% 0 in
22:19 59.4 °F 42.1 °F 29.9 in SO 4.3 mph 8.7 mph 52.5% 0 in
22:24 59.9 °F 41.9 °F 29.9 in OSO 4.7 mph 9.2 mph 51.2% 0 in
22:29 60.3 °F 41.9 °F 29.9 in SO 5 mph 9 mph 51% 0 in
22:34 60.3 °F 42.1 °F 29.9 in SO 5.2 mph 10.7 mph 51% 0 in
22:39 60.4 °F 42.3 °F 29.9 in SO 5.2 mph 11 mph 51% 0 in
22:44 60.3 °F 42.1 °F 29.9 in SO 5.2 mph 8.1 mph 51% 0 in
22:49 60.3 °F 42.1 °F 29.9 in SO 4.9 mph 8.1 mph 51% 0 in
22:54 60.3 °F 41.9 °F 29.9 in SO 4.7 mph 9.2 mph 51% 0 in
22:59 60.3 °F 42.1 °F 29.9 in OSO 5.7 mph 9.2 mph 51% 0 in
23:04 60.3 °F 42.1 °F 29.9 in OSO 6.2 mph 10.4 mph 51% 0 in
23:09 60.3 °F 42.1 °F 29.9 in OSO 6.2 mph 11.8 mph 51% 0 in
23:14 60.3 °F 41.9 °F 29.9 in OSO 6.2 mph 12 mph 50.8% 0 in
23:19 60.3 °F 41.5 °F 29.9 in OSO 6.2 mph 10.4 mph 50% 0 in
23:24 60.3 °F 41.5 °F 29.9 in OSO 6.2 mph 10 mph 50% 0 in
23:29 60.1 °F 41.4 °F 29.9 in OSO 5.8 mph 10.7 mph 50% 0 in
23:34 60.1 °F 41.4 °F 29.9 in OSO 5.4 mph 11 mph 50% 0 in
23:39 60.3 °F 41.2 °F 29.9 in OSO 5.4 mph 10.4 mph 49.5% 0 in
23:44 60.3 °F 41 °F 29.9 in Oeste 5.4 mph 10 mph 49% 0 in
23:49 60.3 °F 41 °F 29.9 in OSO 5.4 mph 10.4 mph 49% 0 in
23:54 60.3 °F 41 °F 29.9 in Oeste 5.4 mph 10 mph 49% 0 in
23:59 60.3 °F 41 °F 29.9 in Oeste 5.3 mph 9 mph 49% 0 in
Murcia-Puente Tocinos, Espa?a
Compliments of Weather Underground - 3.25 mb

La estación de MeteoMurcia.com, publica sus datos en los siguientes proyectos:

Weather Underground PWS IMURCIAP2 Meteoclimatic www.awekas.at

W3Counter
Web Analytics